LOT7RM EPWA-EVRA
Flight info
| Callsign | LOT7RM |
|---|---|
| Flight time | 0h 56m |
| Altitude | 37000 |
| Route | BAMSO Z182 ASLUX Z460 XESNA M857 BULEP DCT BOKSU DCT GUNTA |
| Aircraft | E75L/M-SDE3GILORVW/S |
Departure
| Time | 2026-04-30 19:30 |
|---|---|
| Airport | Warsaw Chopin Airport (EPWA) |
Arrival
| Time | 2026-04-30 20:27 |
|---|---|
| Airport | Riga International Airport (EVRA) |
| Time | Latitude | Longitude | Altitude | Speed | Heading |
|---|---|---|---|---|---|
| 2026-04-30 19:18 | 52.17314 | 20.96587 | 366 ft | 0 kts | 242° |
| 2026-04-30 19:26 | 52.17313 | 20.96586 | 366 ft | 0 kts | 242° |
| 2026-04-30 19:26 | 52.17293 | 20.96532 | 366 ft | 9 kts | 225° |
| 2026-04-30 19:27 | 52.17069 | 20.96680 | 366 ft | 25 kts | 152° |
| 2026-04-30 19:27 | 52.16744 | 20.96964 | 366 ft | 23 kts | 152° |
| 2026-04-30 19:28 | 52.16643 | 20.97127 | 366 ft | 18 kts | 115° |
| 2026-04-30 19:28 | 52.16542 | 20.97477 | 366 ft | 18 kts | 114° |
| 2026-04-30 19:29 | 52.16405 | 20.97804 | 366 ft | 13 kts | 200° |
| 2026-04-30 19:29 | 52.16332 | 20.97742 | 366 ft | 10 kts | 207° |
| 2026-04-30 19:30 | 52.16894 | 20.95584 | 716 ft | 179 kts | 295° |
| 2026-04-30 19:30 | 52.17952 | 20.91658 | 3136 ft | 202 kts | 296° |
| 2026-04-30 19:31 | 52.20104 | 20.88430 | 5027 ft | 244 kts | 346° |
| 2026-04-30 19:31 | 52.21793 | 20.88045 | 6221 ft | 253 kts | 357° |
| 2026-04-30 19:31 | 52.24696 | 20.90863 | 8572 ft | 273 kts | 65° |
| 2026-04-30 19:32 | 52.25060 | 20.93901 | 9671 ft | 284 kts | 91° |
| 2026-04-30 19:32 | 52.25175 | 20.97156 | 10875 ft | 297 kts | 80° |
| 2026-04-30 19:32 | 52.25973 | 21.00369 | 11717 ft | 322 kts | 60° |
| 2026-04-30 19:32 | 52.27181 | 21.03560 | 12613 ft | 343 kts | 58° |
| 2026-04-30 19:33 | 52.28422 | 21.06929 | 13778 ft | 354 kts | 59° |
| 2026-04-30 19:33 | 52.29688 | 21.10398 | 15001 ft | 362 kts | 59° |
| 2026-04-30 19:33 | 52.30985 | 21.13918 | 16197 ft | 369 kts | 59° |
| 2026-04-30 19:33 | 52.32317 | 21.17530 | 17360 ft | 375 kts | 58° |
| 2026-04-30 19:34 | 52.33664 | 21.21186 | 18478 ft | 382 kts | 58° |
| 2026-04-30 19:34 | 52.35032 | 21.24902 | 19558 ft | 388 kts | 58° |
| 2026-04-30 19:34 | 52.37837 | 21.32536 | 21611 ft | 400 kts | 58° |
| 2026-04-30 19:35 | 52.39275 | 21.36456 | 22583 ft | 406 kts | 57° |
| 2026-04-30 19:35 | 52.40727 | 21.40422 | 23515 ft | 412 kts | 57° |
| 2026-04-30 19:35 | 52.42210 | 21.44478 | 24425 ft | 417 kts | 57° |
| 2026-04-30 19:35 | 52.43718 | 21.48610 | 25317 ft | 422 kts | 57° |
| 2026-04-30 19:36 | 52.45215 | 21.52718 | 26148 ft | 428 kts | 57° |
| 2026-04-30 19:36 | 52.46755 | 21.56950 | 26975 ft | 432 kts | 57° |
| 2026-04-30 19:36 | 52.49854 | 21.65491 | 28520 ft | 442 kts | 57° |
| 2026-04-30 19:37 | 52.51412 | 21.69796 | 29235 ft | 446 kts | 57° |
| 2026-04-30 19:37 | 52.53017 | 21.74238 | 29949 ft | 451 kts | 57° |
| 2026-04-30 19:37 | 52.54607 | 21.78646 | 30634 ft | 455 kts | 57° |
| 2026-04-30 19:37 | 52.56234 | 21.83165 | 31302 ft | 459 kts | 57° |
| 2026-04-30 19:38 | 52.57856 | 21.87677 | 31941 ft | 463 kts | 57° |
| 2026-04-30 19:38 | 52.59486 | 21.92219 | 32562 ft | 466 kts | 57° |
| 2026-04-30 19:38 | 52.61144 | 21.96849 | 33161 ft | 470 kts | 57° |
| 2026-04-30 19:38 | 52.62807 | 22.01503 | 33703 ft | 474 kts | 57° |
| 2026-04-30 19:39 | 52.64473 | 22.06175 | 34569 ft | 470 kts | 57° |
| 2026-04-30 19:39 | 52.66119 | 22.10801 | 35351 ft | 467 kts | 57° |
| 2026-04-30 19:39 | 52.67739 | 22.15361 | 36036 ft | 465 kts | 57° |
| 2026-04-30 19:39 | 52.69373 | 22.19965 | 36666 ft | 465 kts | 57° |
| 2026-04-30 19:40 | 52.70991 | 22.24533 | 37222 ft | 464 kts | 57° |
| 2026-04-30 19:40 | 52.72633 | 22.29175 | 37392 ft | 468 kts | 57° |
| 2026-04-30 19:40 | 52.76316 | 22.37838 | 37369 ft | 459 kts | 42° |
| 2026-04-30 19:41 | 52.78809 | 22.41125 | 37361 ft | 453 kts | 28° |
| 2026-04-30 19:41 | 52.81605 | 22.43379 | 37361 ft | 449 kts | 18° |
| 2026-04-30 19:41 | 52.87621 | 22.46018 | 37351 ft | 448 kts | 10° |
| 2026-04-30 19:42 | 52.93652 | 22.48473 | 37346 ft | 448 kts | 11° |
| 2026-04-30 19:42 | 52.99691 | 22.50969 | 37344 ft | 448 kts | 11° |
| 2026-04-30 19:43 | 53.05722 | 22.53434 | 37344 ft | 446 kts | 11° |
| 2026-04-30 19:44 | 53.14709 | 22.57113 | 37344 ft | 443 kts | 11° |
| 2026-04-30 19:44 | 53.20667 | 22.59555 | 37344 ft | 443 kts | 11° |
| 2026-04-30 19:45 | 53.26660 | 22.62017 | 37344 ft | 444 kts | 11° |
| 2026-04-30 19:45 | 53.32628 | 22.64475 | 37344 ft | 444 kts | 11° |
| 2026-04-30 19:46 | 53.38634 | 22.66956 | 37344 ft | 444 kts | 12° |
| 2026-04-30 19:46 | 53.44603 | 22.69428 | 37344 ft | 444 kts | 12° |
| 2026-04-30 19:47 | 53.50599 | 22.71919 | 37344 ft | 444 kts | 12° |
| 2026-04-30 19:47 | 53.56567 | 22.74405 | 37344 ft | 444 kts | 12° |
| 2026-04-30 19:48 | 53.62576 | 22.76915 | 37342 ft | 444 kts | 12° |
| 2026-04-30 19:48 | 53.68532 | 22.79410 | 37332 ft | 444 kts | 12° |
| 2026-04-30 19:49 | 53.74524 | 22.81927 | 37321 ft | 444 kts | 12° |
| 2026-04-30 19:49 | 53.83474 | 22.85702 | 37317 ft | 443 kts | 12° |
| 2026-04-30 19:50 | 53.89439 | 22.88227 | 37317 ft | 443 kts | 12° |
| 2026-04-30 19:50 | 53.95425 | 22.90767 | 37317 ft | 443 kts | 12° |
| 2026-04-30 19:51 | 54.01397 | 22.93310 | 37317 ft | 443 kts | 12° |
| 2026-04-30 19:51 | 54.07339 | 22.95847 | 37317 ft | 443 kts | 12° |
| 2026-04-30 19:52 | 54.13305 | 22.98402 | 37317 ft | 443 kts | 12° |
| 2026-04-30 19:52 | 54.19270 | 23.00964 | 37317 ft | 442 kts | 12° |
| 2026-04-30 19:53 | 54.25228 | 23.03531 | 37317 ft | 442 kts | 12° |
| 2026-04-30 19:53 | 54.31178 | 23.06095 | 37317 ft | 442 kts | 12° |
| 2026-04-30 19:54 | 54.37168 | 23.08079 | 37317 ft | 441 kts | 8° |
| 2026-04-30 19:54 | 54.43198 | 23.09943 | 37317 ft | 441 kts | 9° |
| 2026-04-30 19:55 | 54.49199 | 23.11880 | 37317 ft | 441 kts | 8° |
| 2026-04-30 19:55 | 54.55240 | 23.13816 | 37317 ft | 441 kts | 9° |
| 2026-04-30 19:56 | 54.61229 | 23.15755 | 37317 ft | 441 kts | 9° |
| 2026-04-30 19:56 | 54.67251 | 23.17711 | 37317 ft | 441 kts | 9° |
| 2026-04-30 19:57 | 54.73243 | 23.19665 | 37317 ft | 441 kts | 9° |
| 2026-04-30 19:57 | 54.79257 | 23.21633 | 37317 ft | 441 kts | 9° |
| 2026-04-30 19:58 | 54.85307 | 23.23620 | 37317 ft | 441 kts | 9° |
| 2026-04-30 19:58 | 54.91295 | 23.25592 | 37317 ft | 442 kts | 8° |
| 2026-04-30 19:59 | 54.97378 | 23.27601 | 37317 ft | 446 kts | 8° |
| 2026-04-30 20:00 | 55.06533 | 23.30638 | 37317 ft | 451 kts | 8° |
| 2026-04-30 20:00 | 55.12678 | 23.32685 | 37317 ft | 451 kts | 8° |
| 2026-04-30 20:01 | 55.21898 | 23.35767 | 37317 ft | 450 kts | 8° |
| 2026-04-30 20:01 | 55.28032 | 23.37825 | 37317 ft | 450 kts | 8° |
| 2026-04-30 20:02 | 55.37233 | 23.40925 | 37317 ft | 450 kts | 8° |
| 2026-04-30 20:03 | 55.46449 | 23.44045 | 37317 ft | 450 kts | 8° |
| 2026-04-30 20:03 | 55.52585 | 23.46131 | 37317 ft | 450 kts | 8° |
| 2026-04-30 20:04 | 55.58709 | 23.48219 | 37317 ft | 450 kts | 8° |
| 2026-04-30 20:05 | 55.67942 | 23.51379 | 37317 ft | 450 kts | 8° |
| 2026-04-30 20:05 | 55.77119 | 23.54536 | 37317 ft | 450 kts | 8° |
| 2026-04-30 20:06 | 55.83262 | 23.56657 | 37317 ft | 450 kts | 8° |
| 2026-04-30 20:06 | 55.89362 | 23.58770 | 37317 ft | 450 kts | 8° |
| 2026-04-30 20:07 | 55.95504 | 23.60904 | 37317 ft | 450 kts | 8° |
| 2026-04-30 20:07 | 56.01581 | 23.63025 | 36102 ft | 449 kts | 8° |
| 2026-04-30 20:08 | 56.04649 | 23.64096 | 34952 ft | 452 kts | 8° |
| 2026-04-30 20:08 | 56.07739 | 23.65176 | 33790 ft | 454 kts | 9° |
| 2026-04-30 20:08 | 56.10822 | 23.66257 | 32505 ft | 458 kts | 9° |
| 2026-04-30 20:08 | 56.13965 | 23.67360 | 31136 ft | 463 kts | 9° |
| 2026-04-30 20:09 | 56.17107 | 23.68464 | 29705 ft | 468 kts | 9° |
| 2026-04-30 20:09 | 56.20268 | 23.69577 | 28197 ft | 473 kts | 9° |
| 2026-04-30 20:09 | 56.26734 | 23.71861 | 25272 ft | 474 kts | 9° |
| 2026-04-30 20:10 | 56.32859 | 23.75312 | 23526 ft | 455 kts | 24° |
| 2026-04-30 20:10 | 56.35511 | 23.78308 | 22698 ft | 447 kts | 37° |
| 2026-04-30 20:10 | 56.37655 | 23.82169 | 22227 ft | 431 kts | 49° |
| 2026-04-30 20:11 | 56.40736 | 23.90807 | 21456 ft | 400 kts | 66° |
| 2026-04-30 20:11 | 56.41761 | 23.95400 | 20930 ft | 390 kts | 68° |
| 2026-04-30 20:11 | 56.42755 | 23.99812 | 20560 ft | 366 kts | 67° |
| 2026-04-30 20:12 | 56.44603 | 24.07762 | 20067 ft | 318 kts | 67° |
| 2026-04-30 20:12 | 56.45419 | 24.11310 | 19932 ft | 296 kts | 67° |
| 2026-04-30 20:12 | 56.46192 | 24.14672 | 19524 ft | 287 kts | 67° |
| 2026-04-30 20:13 | 56.47016 | 24.17919 | 19023 ft | 282 kts | 61° |
| 2026-04-30 20:13 | 56.48081 | 24.20849 | 18492 ft | 279 kts | 50° |
| 2026-04-30 20:13 | 56.49375 | 24.23410 | 17961 ft | 276 kts | 45° |
| 2026-04-30 20:13 | 56.50691 | 24.25916 | 17425 ft | 274 kts | 46° |
| 2026-04-30 20:14 | 56.51970 | 24.28398 | 16900 ft | 272 kts | 46° |
| 2026-04-30 20:14 | 56.53276 | 24.30899 | 16368 ft | 270 kts | 46° |
| 2026-04-30 20:14 | 56.54554 | 24.33341 | 15850 ft | 268 kts | 46° |
| 2026-04-30 20:14 | 56.55932 | 24.35576 | 15320 ft | 266 kts | 32° |
| 2026-04-30 20:15 | 56.57578 | 24.36938 | 14791 ft | 262 kts | 12° |
| 2026-04-30 20:15 | 56.59358 | 24.37565 | 14276 ft | 259 kts | 7° |
| 2026-04-30 20:15 | 56.61110 | 24.38173 | 13760 ft | 258 kts | 9° |
| 2026-04-30 20:15 | 56.62849 | 24.38754 | 13251 ft | 256 kts | 3° |
| 2026-04-30 20:16 | 56.64600 | 24.38494 | 12706 ft | 249 kts | 337° |
| 2026-04-30 20:16 | 56.66040 | 24.36939 | 12199 ft | 241 kts | 316° |
| 2026-04-30 20:16 | 56.67343 | 24.35046 | 11727 ft | 239 kts | 318° |
| 2026-04-30 20:16 | 56.68646 | 24.33228 | 11234 ft | 235 kts | 317° |
| 2026-04-30 20:17 | 56.69905 | 24.31437 | 10665 ft | 232 kts | 317° |
| 2026-04-30 20:17 | 56.71153 | 24.29652 | 10135 ft | 228 kts | 317° |
| 2026-04-30 20:17 | 56.72390 | 24.27879 | 9590 ft | 225 kts | 317° |
| 2026-04-30 20:17 | 56.73610 | 24.26127 | 9045 ft | 222 kts | 317° |
| 2026-04-30 20:18 | 56.74801 | 24.24415 | 8519 ft | 218 kts | 317° |
| 2026-04-30 20:18 | 56.75995 | 24.22697 | 7983 ft | 215 kts | 318° |
| 2026-04-30 20:18 | 56.77157 | 24.21022 | 7449 ft | 212 kts | 318° |
| 2026-04-30 20:18 | 56.78294 | 24.19383 | 6922 ft | 210 kts | 318° |
| 2026-04-30 20:19 | 56.79414 | 24.17727 | 6371 ft | 208 kts | 313° |
| 2026-04-30 20:19 | 56.80165 | 24.15547 | 5785 ft | 204 kts | 284° |
| 2026-04-30 20:19 | 56.80198 | 24.13035 | 5233 ft | 202 kts | 259° |
| 2026-04-30 20:19 | 56.79623 | 24.10773 | 4843 ft | 194 kts | 234° |
| 2026-04-30 20:20 | 56.78806 | 24.08979 | 4702 ft | 176 kts | 233° |
| 2026-04-30 20:20 | 56.78070 | 24.07329 | 4567 ft | 155 kts | 233° |
| 2026-04-30 20:20 | 56.77401 | 24.05830 | 4202 ft | 152 kts | 234° |
| 2026-04-30 20:20 | 56.76750 | 24.04375 | 3957 ft | 148 kts | 234° |
| 2026-04-30 20:21 | 56.76094 | 24.02910 | 3754 ft | 151 kts | 234° |
| 2026-04-30 20:21 | 56.75421 | 24.01405 | 3541 ft | 153 kts | 234° |
| 2026-04-30 20:21 | 56.74755 | 23.99922 | 3325 ft | 152 kts | 234° |
| 2026-04-30 20:21 | 56.74084 | 23.98412 | 3111 ft | 152 kts | 237° |
| 2026-04-30 20:22 | 56.73782 | 23.96667 | 2884 ft | 145 kts | 278° |
| 2026-04-30 20:22 | 56.74171 | 23.95023 | 2684 ft | 144 kts | 310° |
| 2026-04-30 20:22 | 56.75021 | 23.94116 | 2497 ft | 142 kts | 348° |
| 2026-04-30 20:22 | 56.76015 | 23.94362 | 2292 ft | 150 kts | 22° |
| 2026-04-30 20:23 | 56.76946 | 23.95151 | 2042 ft | 146 kts | 8° |
| 2026-04-30 20:23 | 56.77925 | 23.94958 | 1997 ft | 142 kts | 347° |
| 2026-04-30 20:23 | 56.78930 | 23.94985 | 1993 ft | 147 kts | 3° |
| 2026-04-30 20:23 | 56.79961 | 23.95127 | 1991 ft | 148 kts | 1° |
| 2026-04-30 20:24 | 56.80983 | 23.95273 | 1954 ft | 147 kts | 2° |
| 2026-04-30 20:24 | 56.81995 | 23.95423 | 1757 ft | 144 kts | 3° |
| 2026-04-30 20:24 | 56.82999 | 23.95584 | 1597 ft | 144 kts | 3° |
| 2026-04-30 20:24 | 56.83989 | 23.95744 | 1378 ft | 146 kts | 2° |
| 2026-04-30 20:25 | 56.85986 | 23.96072 | 984 ft | 142 kts | 4° |
| 2026-04-30 20:25 | 56.86948 | 23.96223 | 783 ft | 131 kts | 3° |
| 2026-04-30 20:26 | 56.88541 | 23.96496 | 492 ft | 109 kts | 3° |
| 2026-04-30 20:26 | 56.90039 | 23.96747 | 203 ft | 107 kts | 5° |
| 2026-04-30 20:26 | 56.90782 | 23.96861 | 48 ft | 106 kts | 4° |
| 2026-04-30 20:27 | 56.91695 | 23.97029 | 44 ft | 16 kts | 36° |
| 2026-04-30 20:27 | 56.91721 | 23.97402 | 43 ft | 13 kts | 50° |
| 2026-04-30 20:28 | 56.91907 | 23.97433 | 43 ft | 13 kts | 1° |
| 2026-04-30 20:28 | 56.92099 | 23.97461 | 43 ft | 13 kts | 3° |
| 2026-04-30 20:29 | 56.92597 | 23.97588 | 43 ft | 12 kts | 53° |
| 2026-04-30 20:30 | 56.92553 | 23.97662 | 43 ft | 0 kts | 186° |